createdAt,value
2018-02-15T00:00:29.940Z,67.10
2018-02-15T00:02:57.402Z,66.90
2018-02-15T00:05:24.871Z,67.30
2018-02-15T00:07:52.340Z,67.30
2018-02-15T00:10:19.809Z,67.40
2018-02-15T00:12:48.033Z,67.30
2018-02-15T00:15:15.721Z,67.20
2018-02-15T00:17:43.222Z,67.40
2018-02-15T00:20:10.694Z,66.90
2018-02-15T00:22:38.166Z,67.00
2018-02-15T00:25:05.643Z,67.20
2018-02-15T00:27:33.106Z,67.10
2018-02-15T00:30:00.571Z,66.90
2018-02-15T00:32:28.043Z,67.30
2018-02-15T00:34:56.268Z,67.90
2018-02-15T00:37:23.737Z,67.40
2018-02-15T00:39:51.211Z,67.40
2018-02-15T00:42:18.671Z,67.60
2018-02-15T00:44:46.146Z,67.40
2018-02-15T00:47:14.377Z,67.50
2018-02-15T00:49:41.850Z,67.40
2018-02-15T00:52:10.398Z,67.10
2018-02-15T00:54:37.877Z,67.10
2018-02-15T00:57:05.350Z,67.00
2018-02-15T00:59:32.854Z,67.10
2018-02-15T01:02:00.340Z,66.90
2018-02-15T01:04:27.809Z,67.00
2018-02-15T01:06:55.274Z,66.60
2018-02-15T01:09:22.733Z,66.80
2018-02-15T01:11:50.202Z,66.40
2018-02-15T01:14:17.659Z,66.80
2018-02-15T01:16:45.138Z,66.90
2018-02-15T01:19:13.407Z,66.90
2018-02-15T01:21:41.086Z,66.80
2018-02-15T01:24:09.318Z,66.60
2018-02-15T01:26:37.051Z,66.60
2018-02-15T01:29:04.518Z,66.90
2018-02-15T01:31:31.983Z,66.70
2018-02-15T01:33:59.459Z,66.60
2018-02-15T01:36:26.931Z,66.40
2018-02-15T01:38:54.391Z,66.60
2018-02-15T01:41:21.881Z,66.90
2018-02-15T01:43:49.341Z,66.60
2018-02-15T01:46:16.828Z,66.80
2018-02-15T01:48:44.362Z,66.90
2018-02-15T01:51:11.838Z,66.90
2018-02-15T01:53:39.306Z,67.10
2018-02-15T01:56:06.772Z,66.90
2018-02-15T01:58:34.241Z,66.90
2018-02-15T02:01:01.705Z,67.10
2018-02-15T02:03:29.186Z,67.20
2018-02-15T02:05:57.410Z,66.80
2018-02-15T02:08:24.921Z,66.70
2018-02-15T02:10:52.359Z,66.40
2018-02-15T02:13:19.822Z,66.30
2018-02-15T02:15:48.075Z,66.80
2018-02-15T02:18:15.540Z,66.80
2018-02-15T02:20:43.012Z,67.30
2018-02-15T02:23:11.242Z,68.20
2018-02-15T02:25:38.715Z,67.40
2018-02-15T02:28:06.179Z,67.30
2018-02-15T02:30:33.655Z,68.20
2018-02-15T02:33:01.890Z,66.90
2018-02-15T02:35:29.347Z,66.80
2018-02-15T02:37:56.980Z,66.90
2018-02-15T02:40:24.857Z,66.90
2018-02-15T02:42:52.331Z,66.90
2018-02-15T02:45:19.805Z,66.60
2018-02-15T02:47:47.489Z,66.80
2018-02-15T02:50:15.744Z,66.90
2018-02-15T02:52:43.197Z,66.80
2018-02-15T02:55:12.171Z,67.10
2018-02-15T02:57:39.640Z,66.70
2018-02-15T03:00:07.112Z,67.30
2018-02-15T03:02:34.572Z,67.60
2018-02-15T03:05:02.292Z,67.10
2018-02-15T03:07:29.768Z,67.30
2018-02-15T03:09:57.221Z,67.80
2018-02-15T03:12:25.458Z,67.40
2018-02-15T03:14:52.932Z,67.40
2018-02-15T03:17:20.398Z,67.30
2018-02-15T03:19:47.870Z,67.20
2018-02-15T03:22:15.338Z,67.30
2018-02-15T03:24:42.803Z,67.00
2018-02-15T03:27:10.267Z,66.70
2018-02-15T03:29:37.738Z,66.20
2018-02-15T03:32:05.198Z,66.70
2018-02-15T03:34:33.435Z,66.10
2018-02-15T03:37:00.907Z,66.10
2018-02-15T03:39:28.369Z,66.40
2018-02-15T03:41:55.845Z,66.20
2018-02-15T03:44:24.065Z,67.80
2018-02-15T03:46:51.535Z,67.10
2018-02-15T03:49:18.988Z,67.50
2018-02-15T03:51:46.455Z,67.60
2018-02-15T03:54:13.924Z,66.80
2018-02-15T03:56:41.392Z,66.40
2018-02-15T03:59:08.861Z,65.90
2018-02-15T04:01:36.535Z,66.30
2018-02-15T04:04:04.779Z,66.00
2018-02-15T04:06:32.248Z,66.00
2018-02-15T04:08:59.708Z,66.40
2018-02-15T04:11:27.418Z,66.00
2018-02-15T04:13:54.870Z,65.90
2018-02-15T04:16:22.338Z,65.80
2018-02-15T04:18:49.805Z,65.40
2018-02-15T04:21:17.260Z,64.90
2018-02-15T04:23:44.729Z,65.00
2018-02-15T04:26:12.193Z,64.60
2018-02-15T04:28:39.678Z,64.20
2018-02-15T04:31:07.919Z,64.40
2018-02-15T04:33:35.374Z,64.40
2018-02-15T04:36:02.843Z,65.10
2018-02-15T04:38:30.306Z,65.30
2018-02-15T04:40:57.761Z,64.90
2018-02-15T04:43:25.229Z,64.70
2018-02-15T04:45:52.706Z,65.50
2018-02-15T04:48:20.188Z,65.00
2018-02-15T04:50:47.645Z,64.50
2018-02-15T04:53:15.107Z,65.40
2018-02-15T04:55:42.574Z,65.10
2018-02-15T04:58:10.034Z,64.50
2018-02-15T05:00:37.505Z,63.90
2018-02-15T05:03:04.962Z,64.20
2018-02-15T05:05:32.426Z,63.60
2018-02-15T05:07:59.879Z,63.70
2018-02-15T05:10:27.345Z,64.20
2018-02-15T05:12:54.805Z,64.30
2018-02-15T05:15:22.273Z,64.20
2018-02-15T05:17:49.727Z,64.40
2018-02-15T05:20:17.190Z,64.40
2018-02-15T05:22:44.646Z,63.40
2018-02-15T05:25:12.118Z,63.60
2018-02-15T05:27:40.338Z,62.50
2018-02-15T05:30:07.804Z,62.40
2018-02-15T05:32:35.269Z,61.80
2018-02-15T05:35:02.742Z,61.20
2018-02-15T05:37:30.197Z,60.60
2018-02-15T05:39:57.667Z,60.30
2018-02-15T05:42:25.122Z,60.00
2018-02-15T05:44:52.590Z,59.30
2018-02-15T05:47:20.064Z,59.00
2018-02-15T05:49:47.530Z,59.20
2018-02-15T05:52:14.978Z,59.30
2018-02-15T05:54:42.489Z,58.90
2018-02-15T05:57:09.961Z,59.10
2018-02-15T05:59:37.415Z,58.80
2018-02-15T06:02:04.898Z,59.70
2018-02-15T06:04:33.118Z,59.70
2018-02-15T06:07:00.800Z,59.60
2018-02-15T06:09:28.259Z,59.90
2018-02-15T06:11:55.730Z,60.00
2018-02-15T06:14:23.183Z,59.80
2018-02-15T06:16:50.897Z,59.40
2018-02-15T06:19:18.375Z,59.80
2018-02-15T06:21:45.825Z,60.00
2018-02-15T06:24:13.285Z,60.00
2018-02-15T06:26:40.737Z,60.10
2018-02-15T06:29:08.193Z,60.00
2018-02-15T06:31:35.654Z,60.00
2018-02-15T06:34:03.122Z,60.00
2018-02-15T06:36:30.610Z,60.00
2018-02-15T06:38:58.833Z,60.10
2018-02-15T06:41:26.297Z,59.70
2018-02-15T06:43:53.749Z,59.70
2018-02-15T06:46:21.219Z,59.80
2018-02-15T06:48:48.676Z,59.70
2018-02-15T06:51:16.145Z,59.80
2018-02-15T06:53:43.619Z,59.20
2018-02-15T06:56:11.081Z,59.40
2018-02-15T06:58:38.538Z,59.30
2018-02-15T07:01:06.044Z,58.80
2018-02-15T07:03:34.267Z,58.80
2018-02-15T07:06:01.748Z,58.80
2018-02-15T07:08:29.975Z,57.80
2018-02-15T07:10:57.430Z,57.70
2018-02-15T07:13:24.903Z,57.50
2018-02-15T07:15:52.373Z,57.50
2018-02-15T07:18:19.827Z,56.90
2018-02-15T07:20:47.294Z,57.40
2018-02-15T07:23:15.526Z,57.40
2018-02-15T07:25:42.977Z,57.30
2018-02-15T07:28:10.441Z,57.40
2018-02-15T07:30:37.911Z,57.50
2018-02-15T07:33:05.366Z,57.60
2018-02-15T07:35:32.831Z,57.30
2018-02-15T07:38:00.289Z,57.00
2018-02-15T07:40:27.770Z,56.90
2018-02-15T07:42:55.233Z,57.80
2018-02-15T07:45:23.451Z,57.10
2018-02-15T07:47:50.914Z,57.00
2018-02-15T07:50:18.365Z,56.90
2018-02-15T07:52:45.842Z,56.60
2018-02-15T07:55:13.305Z,57.30
2018-02-15T07:57:40.775Z,56.90
2018-02-15T08:00:08.237Z,57.00
2018-02-15T08:02:35.695Z,57.00
2018-02-15T08:05:03.158Z,56.80
2018-02-15T08:07:30.626Z,56.60
2018-02-15T08:09:58.860Z,56.70
2018-02-15T08:12:26.309Z,56.60
2018-02-15T08:14:53.775Z,56.00
2018-02-15T08:17:21.234Z,55.60
2018-02-15T08:19:48.696Z,55.30
2018-02-15T08:22:16.172Z,55.30
2018-02-15T08:24:43.641Z,54.80
2018-02-15T08:27:11.868Z,54.70
2018-02-15T08:29:39.337Z,54.60
2018-02-15T08:32:06.821Z,54.00
2018-02-15T08:34:35.059Z,54.00
2018-02-15T08:37:02.526Z,54.00
2018-02-15T08:39:29.986Z,54.00
2018-02-15T08:41:58.209Z,53.40
2018-02-15T08:44:26.433Z,53.30
2018-02-15T08:46:53.902Z,53.20
2018-02-15T08:49:21.356Z,52.80
2018-02-15T08:51:48.815Z,52.70
2018-02-15T08:54:16.274Z,52.50
2018-02-15T08:56:43.742Z,52.70
2018-02-15T08:59:11.203Z,52.60
2018-02-15T09:01:38.666Z,52.80
2018-02-15T09:04:06.891Z,52.90
2018-02-15T09:06:34.353Z,52.10
2018-02-15T09:09:01.847Z,52.00
2018-02-15T09:11:30.090Z,52.20
2018-02-15T09:13:57.546Z,52.20
2018-02-15T09:16:25.016Z,51.60
2018-02-15T09:18:53.279Z,52.30
2018-02-15T09:21:20.705Z,52.20
2018-02-15T09:23:48.161Z,50.40
2018-02-15T09:26:15.614Z,50.40
2018-02-15T09:28:43.075Z,49.60
2018-02-15T09:31:10.529Z,49.70
2018-02-15T09:33:37.990Z,48.40
2018-02-15T09:36:05.451Z,48.50
2018-02-15T09:38:32.911Z,48.80
2018-02-15T09:41:00.367Z,49.30
2018-02-15T09:43:27.829Z,49.50
2018-02-15T09:45:55.290Z,48.50
2018-02-15T09:48:22.771Z,48.50
2018-02-15T09:50:50.238Z,47.90
2018-02-15T09:53:17.694Z,47.50
2018-02-15T09:55:45.163Z,46.20
2018-02-15T09:58:13.397Z,45.70
2018-02-15T10:00:40.854Z,45.60
2018-02-15T10:03:08.306Z,45.00
2018-02-15T10:05:35.765Z,45.50
2018-02-15T10:08:03.221Z,46.80
2018-02-15T10:10:30.701Z,45.10
2018-02-15T10:12:58.170Z,44.20
2018-02-15T10:15:25.622Z,43.20
2018-02-15T10:17:53.083Z,42.70
2018-02-15T10:20:22.051Z,43.70
2018-02-15T10:22:49.539Z,43.60
2018-02-15T10:25:16.969Z,45.00
2018-02-15T10:27:44.422Z,44.20
2018-02-15T10:30:11.918Z,45.40
2018-02-15T10:32:39.374Z,45.80
2018-02-15T10:35:06.830Z,46.30
2018-02-15T10:37:34.542Z,45.70
2018-02-15T10:40:02.013Z,44.60
2018-02-15T10:42:29.466Z,44.70
2018-02-15T10:44:56.939Z,44.20
2018-02-15T10:47:24.391Z,44.00
2018-02-15T10:49:51.841Z,44.20
2018-02-15T10:52:19.305Z,45.30
2018-02-15T10:54:46.764Z,46.10
2018-02-15T10:57:14.223Z,44.90
2018-02-15T10:59:41.796Z,45.40
2018-02-15T11:02:14.899Z,45.70
2018-02-15T11:04:48.138Z,44.60
2018-02-15T11:07:15.590Z,45.40
2018-02-15T11:09:43.045Z,44.60
2018-02-15T11:12:10.513Z,44.80
2018-02-15T11:14:37.969Z,45.70
2018-02-15T11:17:05.432Z,46.00
2018-02-15T11:19:32.892Z,46.80
2018-02-15T11:22:00.338Z,45.80
2018-02-15T11:24:27.799Z,43.90
2018-02-15T11:26:55.293Z,44.40
2018-02-15T11:29:22.758Z,45.50
2018-02-15T11:31:50.211Z,45.20
2018-02-15T11:34:17.672Z,46.00
2018-02-15T11:36:45.128Z,45.50
2018-02-15T11:39:12.601Z,45.30
2018-02-15T11:41:40.817Z,45.10
2018-02-15T11:44:08.290Z,45.00
2018-02-15T11:46:35.763Z,45.80
2018-02-15T11:49:03.214Z,45.00
2018-02-15T11:51:30.691Z,45.70
2018-02-15T11:53:58.147Z,45.40
2018-02-15T11:56:25.621Z,46.30
2018-02-15T11:58:53.850Z,45.90
2018-02-15T12:01:21.305Z,45.70
2018-02-15T12:03:48.766Z,45.10
2018-02-15T12:06:16.234Z,46.30
2018-02-15T12:08:43.686Z,46.60
2018-02-15T12:11:11.154Z,45.00
2018-02-15T12:13:38.606Z,45.30
2018-02-15T12:16:06.832Z,47.10
2018-02-15T12:18:34.302Z,47.10
2018-02-15T12:21:01.750Z,46.30
2018-02-15T12:23:29.210Z,46.00
2018-02-15T12:25:56.660Z,46.70
2018-02-15T12:28:24.124Z,45.40
2018-02-15T12:30:51.605Z,46.30
2018-02-15T12:33:19.050Z,45.80
2018-02-15T12:35:46.513Z,46.10
2018-02-15T12:38:13.959Z,45.10
2018-02-15T12:40:41.428Z,45.80
2018-02-15T12:43:08.878Z,46.50
2018-02-15T12:45:36.344Z,47.00
2018-02-15T12:48:03.813Z,47.10
2018-02-15T12:50:31.275Z,46.90
2018-02-15T12:52:58.741Z,46.60
2018-02-15T12:55:26.192Z,46.90
2018-02-15T12:57:53.654Z,46.90
2018-02-15T13:00:21.106Z,47.60
2018-02-15T13:02:48.562Z,47.70
2018-02-15T13:05:16.013Z,47.40
2018-02-15T13:07:43.471Z,45.90
2018-02-15T13:10:10.931Z,45.80
2018-02-15T13:12:50.126Z,45.80
2018-02-15T13:15:29.663Z,46.10
2018-02-15T13:17:57.114Z,46.10
2018-02-15T13:20:24.574Z,46.30
2018-02-15T13:22:52.025Z,46.20
2018-02-15T13:25:20.254Z,46.30
2018-02-15T13:27:59.598Z,46.30
2018-02-15T13:30:27.068Z,46.70
2018-02-15T13:32:54.541Z,46.50
2018-02-15T13:35:22.761Z,46.80
2018-02-15T13:37:50.216Z,46.10
2018-02-15T13:40:17.686Z,48.50
2018-02-15T13:42:45.131Z,49.80
2018-02-15T13:45:12.590Z,51.40
2018-02-15T13:47:40.052Z,52.10
2018-02-15T13:50:08.273Z,54.70
2018-02-15T13:52:36.545Z,55.60
2018-02-15T13:55:03.978Z,55.60
2018-02-15T13:57:31.440Z,56.20
2018-02-15T13:59:58.894Z,57.00
2018-02-15T14:02:26.362Z,57.50
2018-02-15T14:04:53.815Z,58.90
2018-02-15T14:07:21.275Z,60.00
2018-02-15T14:09:48.743Z,61.70
2018-02-15T14:12:16.958Z,64.10
2018-02-15T14:14:44.418Z,64.10
2018-02-15T14:17:11.876Z,65.50
2018-02-15T14:19:39.338Z,66.00
2018-02-15T14:22:06.789Z,66.70
2018-02-15T14:24:34.249Z,67.40
2018-02-15T14:27:01.706Z,68.00
2018-02-15T14:29:29.168Z,68.70
2018-02-15T14:31:56.625Z,69.40
2018-02-15T14:34:24.095Z,69.80
2018-02-15T14:36:51.549Z,70.20
2018-02-15T14:39:19.009Z,70.50
2018-02-15T14:41:46.465Z,70.70
2018-02-15T14:44:13.946Z,71.10
2018-02-15T14:46:41.407Z,71.50
2018-02-15T14:49:08.857Z,71.60
2018-02-15T14:51:36.316Z,71.80
2018-02-15T14:54:03.764Z,72.30
2018-02-15T14:56:31.226Z,73.00
2018-02-15T14:58:58.680Z,72.90
2018-02-15T15:01:26.146Z,73.10
2018-02-15T15:03:54.379Z,73.30
2018-02-15T15:06:21.830Z,73.10
2018-02-15T15:08:49.289Z,75.30
2018-02-15T15:11:16.751Z,74.00
2018-02-15T15:13:44.222Z,73.90
2018-02-15T15:16:11.669Z,74.00
2018-02-15T15:18:39.130Z,74.20
2018-02-15T15:21:06.581Z,74.40
2018-02-15T15:23:34.037Z,74.30
2018-02-15T15:26:01.804Z,75.10
2018-02-15T15:28:29.261Z,75.40
2018-02-15T15:30:56.761Z,75.90
2018-02-15T15:33:24.989Z,76.40
2018-02-15T15:35:52.455Z,76.30
2018-02-15T15:38:19.910Z,76.30
2018-02-15T15:40:47.389Z,76.60
2018-02-15T15:43:14.830Z,76.50
2018-02-15T15:45:42.289Z,77.50
2018-02-15T15:48:09.767Z,78.60
2018-02-15T15:50:37.231Z,78.50
2018-02-15T15:53:06.302Z,78.60
2018-02-15T15:55:33.765Z,78.60
2018-02-15T15:58:01.231Z,78.70
2018-02-15T16:00:28.943Z,78.90
2018-02-15T16:02:56.417Z,78.70
2018-02-15T16:05:23.871Z,79.00
2018-02-15T16:07:51.369Z,78.90
2018-02-15T16:10:18.822Z,78.70
2018-02-15T16:12:46.371Z,79.40
2018-02-15T16:15:13.884Z,78.70
2018-02-15T16:17:41.418Z,78.50
2018-02-15T16:20:09.641Z,78.50
2018-02-15T16:22:37.218Z,78.50
2018-02-15T16:25:04.687Z,78.30
2018-02-15T16:27:32.142Z,79.00
2018-02-15T16:29:59.646Z,78.40
2018-02-15T16:32:27.148Z,78.50
2018-02-15T16:34:54.631Z,78.20
2018-02-15T16:37:22.137Z,78.40
2018-02-15T16:39:49.600Z,78.70
2018-02-15T16:42:17.113Z,78.60
2018-02-15T16:44:44.565Z,78.70
2018-02-15T16:47:12.126Z,78.70
2018-02-15T16:49:39.584Z,78.70
2018-02-15T16:52:07.912Z,78.80
2018-02-15T16:54:35.373Z,78.60
2018-02-15T16:57:02.913Z,78.20
2018-02-15T16:59:30.370Z,77.80
2018-02-15T17:01:57.830Z,78.30
2018-02-15T17:04:25.286Z,78.60
2018-02-15T17:06:52.758Z,78.50
2018-02-15T17:09:20.223Z,78.60
2018-02-15T17:11:47.776Z,78.80
2018-02-15T17:14:15.245Z,78.70
2018-02-15T17:16:42.799Z,79.00
2018-02-15T17:19:10.250Z,79.10
2018-02-15T17:21:37.826Z,79.10
2018-02-15T17:24:05.295Z,79.00
2018-02-15T17:26:32.807Z,79.10
2018-02-15T17:29:00.337Z,79.00
2018-02-15T17:31:28.598Z,79.50
2018-02-15T17:33:56.074Z,79.40
2018-02-15T17:36:24.305Z,79.60
2018-02-15T17:38:51.776Z,79.50
2018-02-15T17:41:19.238Z,79.30
2018-02-15T17:43:46.791Z,79.20
2018-02-15T17:46:14.253Z,79.10
2018-02-15T17:48:41.729Z,79.70
2018-02-15T17:51:10.078Z,79.80
2018-02-15T17:53:37.616Z,79.80
2018-02-15T17:56:05.138Z,79.50
2018-02-15T17:58:33.568Z,79.30
2018-02-15T18:01:01.122Z,79.30
2018-02-15T18:06:15.518Z,79.50
2018-02-15T18:08:43.011Z,79.40
2018-02-15T18:11:10.472Z,79.20
2018-02-15T18:13:37.938Z,78.90
2018-02-15T18:16:05.572Z,78.90
2018-02-15T18:18:33.053Z,78.70
2018-02-15T18:21:01.346Z,78.70
2018-02-15T18:23:28.893Z,79.50
2018-02-15T18:25:56.543Z,78.40
2018-02-15T18:28:24.020Z,78.20
2018-02-15T18:30:51.711Z,78.50
2018-02-15T18:33:20.193Z,78.60
2018-02-15T18:35:47.718Z,78.60
2018-02-15T18:38:15.316Z,78.80
2018-02-15T18:40:43.555Z,78.50
2018-02-15T18:43:11.247Z,78.40
2018-02-15T18:45:39.596Z,78.50
2018-02-15T18:48:07.101Z,79.40
2018-02-15T18:50:35.329Z,78.30
2018-02-15T18:53:02.793Z,78.30
2018-02-15T18:55:30.298Z,78.20
2018-02-15T18:57:57.766Z,78.30
2018-02-15T19:00:25.331Z,78.50
2018-02-15T19:02:52.918Z,78.60
2018-02-15T19:05:20.394Z,78.30
2018-02-15T19:07:48.021Z,78.50
2018-02-15T19:10:15.612Z,78.20
2018-02-15T19:12:43.197Z,78.00
2018-02-15T19:15:11.445Z,78.60
2018-02-15T19:17:38.965Z,78.60
2018-02-15T19:20:06.441Z,79.20
2018-02-15T19:22:33.992Z,79.40
2018-02-15T19:25:01.457Z,79.30
2018-02-15T19:27:28.944Z,79.30
2018-02-15T19:29:56.401Z,79.00
2018-02-15T19:32:23.875Z,78.90
2018-02-15T19:34:52.106Z,79.00
2018-02-15T19:37:19.566Z,78.90
2018-02-15T19:39:47.042Z,79.00
2018-02-15T19:42:14.510Z,79.10
2018-02-15T19:44:41.988Z,78.90
2018-02-15T19:47:09.470Z,79.10
2018-02-15T19:49:36.939Z,78.70
2018-02-15T19:52:04.405Z,79.00
2018-02-15T19:54:31.869Z,78.90
2018-02-15T19:56:59.340Z,78.80
2018-02-15T19:59:26.823Z,78.90
2018-02-15T20:01:55.050Z,78.90
2018-02-15T20:04:22.526Z,78.90
2018-02-15T20:06:49.994Z,79.60
2018-02-15T20:09:17.466Z,79.20
2018-02-15T20:11:45.698Z,79.90
2018-02-15T20:14:13.162Z,79.90
2018-02-15T20:16:40.634Z,79.90
2018-02-15T20:19:08.096Z,79.20
2018-02-15T20:21:35.578Z,79.10
2018-02-15T20:24:03.822Z,79.60
2018-02-15T20:26:37.078Z,79.60
2018-02-15T20:29:04.550Z,79.50
2018-02-15T20:31:32.007Z,79.80
2018-02-15T20:33:59.474Z,79.90
2018-02-15T20:36:26.933Z,80.10
2018-02-15T20:39:00.078Z,80.30
2018-02-15T20:41:27.547Z,80.30
2018-02-15T20:43:55.014Z,80.20
2018-02-15T20:46:22.473Z,79.60
2018-02-15T20:48:49.946Z,79.90
2018-02-15T20:51:23.249Z,79.90
2018-02-15T20:56:52.630Z,80.30
2018-02-15T20:59:20.118Z,80.50
2018-02-15T21:01:47.600Z,80.20
2018-02-15T21:04:15.077Z,81.40
2018-02-15T21:06:43.477Z,80.40
2018-02-15T21:09:10.948Z,80.40
2018-02-15T21:11:38.418Z,80.50
2018-02-15T21:14:06.173Z,80.50
2018-02-15T21:16:33.637Z,80.10
2018-02-15T21:19:01.109Z,79.90
2018-02-15T21:21:28.570Z,79.70
2018-02-15T21:23:56.048Z,80.10
2018-02-15T21:26:23.512Z,80.10
2018-02-15T21:28:51.745Z,79.10
2018-02-15T21:31:19.209Z,79.90
2018-02-15T21:33:46.676Z,79.30
2018-02-15T21:36:14.142Z,79.10
2018-02-15T21:38:41.605Z,79.20
2018-02-15T21:41:09.071Z,79.00
2018-02-15T21:43:36.550Z,79.40
2018-02-15T21:46:04.014Z,79.60
2018-02-15T21:48:31.496Z,79.30
2018-02-15T21:50:58.971Z,79.40
2018-02-15T21:53:26.434Z,79.80
2018-02-15T21:55:53.929Z,79.60
2018-02-15T21:58:22.162Z,79.40
2018-02-15T22:00:49.624Z,79.40
2018-02-15T22:03:17.082Z,79.30
2018-02-15T22:05:44.549Z,79.40
2018-02-15T22:08:12.016Z,78.90
2018-02-15T22:10:40.254Z,80.40
2018-02-15T22:13:07.724Z,80.30
2018-02-15T22:15:35.190Z,80.00
2018-02-15T22:18:03.426Z,80.70
2018-02-15T22:20:30.897Z,79.90
2018-02-15T22:22:58.359Z,79.60
2018-02-15T22:25:25.831Z,80.10
2018-02-15T22:27:53.307Z,79.70
2018-02-15T22:30:20.776Z,79.80
2018-02-15T22:32:49.022Z,79.80
2018-02-15T22:35:16.489Z,79.70
2018-02-15T22:37:43.957Z,79.50
2018-02-15T22:40:11.418Z,80.10
2018-02-15T22:42:38.885Z,79.40
2018-02-15T22:45:07.119Z,79.40
2018-02-15T22:47:34.573Z,79.40
2018-02-15T22:50:02.051Z,79.70
2018-02-15T22:52:29.509Z,79.20
2018-02-15T22:54:56.996Z,79.10
2018-02-15T22:57:25.242Z,79.20
2018-02-15T22:59:52.745Z,79.10
2018-02-15T23:02:20.212Z,79.40
2018-02-15T23:04:47.667Z,79.70
2018-02-15T23:07:15.137Z,79.60
2018-02-15T23:09:42.617Z,80.10
2018-02-15T23:12:10.086Z,80.20
2018-02-15T23:14:37.571Z,80.50
2018-02-15T23:17:05.799Z,80.50
2018-02-15T23:19:33.277Z,80.40
2018-02-15T23:22:00.742Z,80.40
2018-02-15T23:24:28.213Z,80.50
2018-02-15T23:26:56.491Z,80.80
2018-02-15T23:29:24.745Z,80.60
2018-02-15T23:31:52.215Z,80.60
2018-02-15T23:34:20.910Z,80.00
2018-02-15T23:36:49.126Z,79.80
2018-02-15T23:39:16.593Z,79.80
2018-02-15T23:41:44.048Z,79.70
2018-02-15T23:44:11.528Z,80.30
2018-02-15T23:46:38.989Z,80.00
2018-02-15T23:49:06.466Z,79.00
2018-02-15T23:51:33.930Z,79.10
2018-02-15T23:54:01.402Z,79.10
2018-02-15T23:56:28.871Z,80.20
2018-02-15T23:58:56.343Z,79.10
